Terminal Aerodrome Forecast
Issued by NWS Portland, ME

Home | Current Version | Previous Version | Text Only | Print | Product List | Glossary On
Versions: 1 2 3 4 5 6 7 8 9 10 11 12 13 14 15 16 17 18 19 20 21 22
000
FTUS41 KGYX 312000 AAA
TAFCON
TAF AMD
KCON 312010Z 3120/0118 19009KT P6SM SCT040
      TEMPO 3121/3123 25017G30KT 3SM -TSRA BR BKN025CB
     FM010200 VRB03KT 5SM BR SCT250
     FM010900 00000KT 1SM BR SCT004
     FM011200 VRB03KT P6SM SCT250=

USA.gov is the U.S. government's official web portal to all federal, state and local government web resources and services.